Sudbury, Massachusetts
Current Conditions -  °F | °C
As of 4:56 PM on Thursday 20 Nov 2014 (Local Time) from KBED Reporting Station
Clear Clear  
Wind Chill: 32°   Ceiling: Unl
Heat Index: 37°   Visibility: 10mi
Dew Point: 16°   Wind: 6mph
Humidity: 42%   Direction: 280°W
Pressure: 29.78"   Gusts: NA
Location:  42.38°N, 71.41°W
Report Text: KBED 202156Z 28005KT 10SM CLR 03/M09 A2978 RMK AO2 SLP099 T00281089
Loading
Personal Weather Stations






























Interactive Weather Map New forecast layout! Learn more

10-Day Weather Forecast

Advertisements
Track Severe Weather on mobile